Startpagina
METAR-TAF:

METAR-TAF

Vliegvelden :

Julius Nyerere International Airport

Dar es Salaam, Tanzania

breedte: 06-52S, lengte: 039-12E, hoogte: 55 m

Actueel weer

Dit bericht is 1 uur en het 29 minuten geleden gemaakt, om 17:00 UTC
Wind 5 kt uit het zuidoosten
Temperatuur 24°C
Vochtigheid 83%
Druk 1016 hPa
Zicht 10 km of meer
Weinig wolken op 1500 ft

METAR: HTDA 191700Z 13005KT 9999 FEW015 24/21 Q1016 NOSIG

Tijdstip: 21:29 (18:29 UTC)

Verwachting

Dit bericht is 1 uur en het 29 minuten geleden gemaakt, om 17:00 UTC
Verwachting geldig van 19 om 18 UTC tot 20 om 24 UTC
Wind 10 kt uit het zuidoosten
Zicht 10 km of meer
Verspreide wolken op 1400 ft
Wijzigt naar
van 20 om 07 UTC tot 20 om 10 UTC
Gebroken wolken op 2000 ft

TAF: HTDA 191700Z 1918/2024 14010KT 9999 SCT014 BECMG 2007/2010 BKN020

Waarnemingen en weersverwachtingen van meer dan 4000 vliegvelden (METAR en TAF).

De beschikbare stations zijn de gele en rode punten op de kaart.

Ga met uw muis naar het station om de naam te zien.

Klik dan om waarnemingen en weersverwachtingen te zien.

kaart wijzigen: klik op de groene knoppen met een zwart kruis om in te zoomen, op de groene knop met een streepje om uit te zoomen of op de groene pijlen voor aangrenzende kaarten.


METAR-TAF: